createdAt,value
2023-01-01T00:01:40.535Z,1.55
2023-01-01T00:04:10.935Z,1.53
2023-01-01T00:06:39.840Z,1.48
2023-01-01T00:09:25.101Z,1.57
2023-01-01T00:11:51.693Z,1.53
2023-01-01T00:14:18.137Z,1.56
2023-01-01T00:16:44.654Z,1.50
2023-01-01T00:19:11.234Z,1.38
2023-01-01T00:21:37.777Z,1.29
2023-01-01T00:24:06.980Z,1.23
2023-01-01T00:26:35.568Z,1.22
2023-01-01T00:29:02.460Z,1.14
2023-01-01T00:31:29.054Z,1.07
2023-01-01T00:33:56.161Z,1.05
2023-01-01T00:36:24.222Z,1.16
2023-01-01T00:38:50.932Z,1.16
2023-01-01T00:41:17.809Z,1.11
2023-01-01T00:43:44.360Z,1.18
2023-01-01T00:46:10.809Z,1.13
2023-01-01T00:48:37.346Z,1.09
2023-01-01T00:51:04.435Z,1.05
2023-01-01T00:53:31.264Z,1.03
2023-01-01T00:55:57.708Z,1.05
2023-01-01T00:58:24.929Z,1.05
2023-01-01T01:00:51.917Z,1.05
2023-01-01T01:03:30.754Z,1.05
2023-01-01T01:06:03.319Z,1.07
2023-01-01T01:08:31.546Z,1.06
2023-01-01T01:11:08.629Z,1.02
2023-01-01T01:13:35.074Z,0.90
2023-01-01T01:16:02.156Z,0.77
2023-01-01T01:18:28.565Z,0.68
2023-01-01T01:20:54.999Z,0.70
2023-01-01T01:23:21.664Z,0.66
2023-01-01T01:25:48.098Z,0.74
2023-01-01T01:28:15.053Z,0.75
2023-01-01T01:30:41.984Z,0.86
2023-01-01T01:33:08.751Z,0.79
2023-01-01T01:35:35.588Z,0.64
2023-01-01T01:38:02.607Z,0.54
2023-01-01T01:40:29.091Z,0.53
2023-01-01T01:42:55.538Z,0.52
2023-01-01T01:45:21.995Z,0.53
2023-01-01T01:47:54.083Z,0.53
2023-01-01T01:50:20.486Z,0.53
2023-01-01T01:53:01.331Z,0.51
2023-01-01T01:58:14.599Z,0.58
2023-01-01T02:00:41.127Z,0.64
2023-01-01T02:03:09.127Z,0.64
2023-01-01T02:05:35.963Z,0.77
2023-01-01T02:08:03.757Z,0.76
2023-01-01T02:10:30.137Z,0.76
2023-01-01T02:12:56.865Z,0.79
2023-01-01T02:15:27.741Z,0.70
2023-01-01T02:17:57.289Z,0.62
2023-01-01T02:20:23.670Z,0.51
2023-01-01T02:22:50.051Z,0.49
2023-01-01T02:25:28.217Z,0.46
2023-01-01T02:28:19.514Z,0.44
2023-01-01T02:30:47.864Z,0.42
2023-01-01T02:33:17.915Z,0.35
2023-01-01T02:35:48.734Z,0.27
2023-01-01T02:38:16.719Z,0.11
2023-01-01T02:40:46.459Z,0.10
2023-01-01T02:43:13.148Z,0.12
2023-01-01T02:45:39.574Z,0.16
2023-01-01T02:48:07.204Z,0.21
2023-01-01T02:50:34.948Z,0.25
2023-01-01T02:53:06.882Z,0.24
2023-01-01T02:55:39.277Z,0.15
2023-01-01T02:58:25.656Z,0.07
2023-01-01T03:00:55.829Z,-0.01
2023-01-01T03:03:25.116Z,-0.09
2023-01-01T03:06:20.861Z,-0.12
2023-01-01T03:09:05.940Z,0.02
2023-01-01T03:11:51.209Z,-0.12
2023-01-01T03:14:21.553Z,-0.06
2023-01-01T03:16:47.914Z,-0.04
2023-01-01T03:19:14.430Z,-0.09
2023-01-01T03:22:01.119Z,-0.22
2023-01-01T03:24:33.510Z,-0.16
2023-01-01T03:27:08.112Z,-0.13
2023-01-01T03:29:35.669Z,-0.16
2023-01-01T03:32:04.480Z,-0.27
2023-01-01T03:34:34.021Z,-0.30
2023-01-01T03:37:04.206Z,-0.30
2023-01-01T03:39:39.049Z,-0.31
2023-01-01T03:42:13.209Z,-0.35
2023-01-01T03:44:47.583Z,-0.31
2023-01-01T03:47:14.329Z,-0.22
2023-01-01T03:49:40.926Z,-0.29
2023-01-01T03:52:20.311Z,-0.24
2023-01-01T03:54:46.677Z,-0.26
2023-01-01T03:57:16.265Z,-0.26
2023-01-01T03:59:46.464Z,-0.36
2023-01-01T04:02:16.033Z,-0.39
2023-01-01T04:04:43.224Z,-0.38
2023-01-01T04:07:15.169Z,-0.30
2023-01-01T04:09:43.548Z,-0.27
2023-01-01T04:12:10.209Z,-0.29
2023-01-01T04:14:37.907Z,-0.27
2023-01-01T04:17:05.078Z,-0.33
2023-01-01T04:19:31.858Z,-0.34
2023-01-01T04:21:58.621Z,-0.39
2023-01-01T04:24:25.089Z,-0.28
2023-01-01T04:26:52.181Z,-0.39
2023-01-01T04:29:19.064Z,-0.37
2023-01-01T04:31:45.821Z,-0.40
2023-01-01T04:34:12.296Z,-0.41
2023-01-01T04:36:39.021Z,-0.34
2023-01-01T04:39:05.578Z,-0.22
2023-01-01T04:41:32.191Z,-0.19
2023-01-01T04:43:58.718Z,-0.25
2023-01-01T04:46:25.154Z,-0.25
2023-01-01T04:48:51.766Z,-0.29
2023-01-01T04:51:18.954Z,-0.29
2023-01-01T04:53:45.811Z,-0.45
2023-01-01T04:56:18.899Z,-0.48
2023-01-01T04:58:45.988Z,-0.55
2023-01-01T05:01:17.268Z,-0.54
2023-01-01T05:03:43.787Z,-0.48
2023-01-01T05:06:11.392Z,-0.47
2023-01-01T05:08:39.197Z,-0.44
2023-01-01T05:11:07.008Z,-0.58
2023-01-01T05:13:37.286Z,-0.54
2023-01-01T05:16:04.652Z,-0.59
2023-01-01T05:18:31.301Z,-0.58
2023-01-01T05:21:04.773Z,-0.57
2023-01-01T05:23:31.361Z,-0.60
2023-01-01T05:25:58.152Z,-0.59
2023-01-01T05:28:24.684Z,-0.51
2023-01-01T05:30:51.524Z,-0.47
2023-01-01T05:33:18.242Z,-0.46
2023-01-01T05:35:44.703Z,-0.36
2023-01-01T05:38:11.175Z,-0.32
2023-01-01T05:40:40.689Z,-0.25
2023-01-01T05:43:07.655Z,-0.29
2023-01-01T05:45:34.299Z,-0.30
2023-01-01T05:48:00.848Z,-0.46
2023-01-01T05:50:27.358Z,-0.39
2023-01-01T05:52:54.313Z,-0.47
2023-01-01T05:55:20.726Z,-0.46
2023-01-01T05:57:47.118Z,-0.41
2023-01-01T06:00:13.968Z,-0.36
2023-01-01T06:02:40.478Z,-0.49
2023-01-01T06:05:07.070Z,-0.56
2023-01-01T06:07:33.474Z,-0.59
2023-01-01T06:10:00.309Z,-0.61
2023-01-01T06:12:26.749Z,-0.69
2023-01-01T06:14:53.177Z,-0.72
2023-01-01T06:17:19.640Z,-0.73
2023-01-01T06:19:46.177Z,-0.71
2023-01-01T06:22:12.558Z,-0.77
2023-01-01T06:24:39.380Z,-0.81
2023-01-01T06:27:07.069Z,-0.82
2023-01-01T06:29:33.570Z,-0.82
2023-01-01T06:32:00.053Z,-0.76
2023-01-01T06:34:26.490Z,-0.75
2023-01-01T06:36:52.930Z,-0.78
2023-01-01T06:39:19.352Z,-0.71
2023-01-01T06:41:45.788Z,-0.69
2023-01-01T06:44:12.144Z,-0.64
2023-01-01T06:46:38.652Z,-0.62
2023-01-01T06:49:06.406Z,-0.62
2023-01-01T06:51:33.996Z,-0.70
2023-01-01T06:54:01.775Z,-0.74
2023-01-01T06:56:28.521Z,-0.65
2023-01-01T06:58:54.900Z,1.00
2023-01-01T07:01:22.782Z,0.42
2023-01-01T07:03:53.052Z,-0.01
2023-01-01T07:06:19.597Z,-0.24
2023-01-01T07:08:46.027Z,-0.24
2023-01-01T07:11:12.620Z,-0.38
2023-01-01T07:13:39.067Z,-0.42
2023-01-01T07:16:12.366Z,-0.55
2023-01-01T07:18:39.808Z,-0.63
2023-01-01T07:21:07.493Z,-0.61
2023-01-01T07:23:34.817Z,-0.58
2023-01-01T07:26:01.350Z,-0.52
2023-01-01T07:28:27.979Z,-0.40
2023-01-01T07:30:54.628Z,-0.36
2023-01-01T07:33:22.460Z,-0.37
2023-01-01T07:35:49.455Z,-0.35
2023-01-01T07:38:16.246Z,-0.37
2023-01-01T07:40:42.724Z,-0.40
2023-01-01T07:43:09.417Z,-0.35
2023-01-01T07:45:35.946Z,-0.23
2023-01-01T07:48:02.558Z,-0.11
2023-01-01T07:50:30.795Z,0.02
2023-01-01T07:52:57.286Z,0.23
2023-01-01T07:55:23.898Z,0.38
2023-01-01T07:57:50.384Z,0.56
2023-01-01T08:00:18.190Z,0.92
2023-01-01T08:02:45.203Z,1.22
2023-01-01T08:05:11.799Z,2.42
2023-01-01T08:07:38.411Z,4.37
2023-01-01T08:10:05.413Z,5.69
2023-01-01T08:12:31.880Z,6.71
2023-01-01T08:14:58.347Z,7.70
2023-01-01T08:17:24.763Z,8.39
2023-01-01T08:19:52.234Z,9.71
2023-01-01T08:22:18.775Z,10.66
2023-01-01T08:24:45.228Z,11.10
2023-01-01T08:27:15.283Z,10.92
2023-01-01T08:29:42.037Z,11.39
2023-01-01T08:32:08.533Z,11.99
2023-01-01T08:34:34.957Z,12.84
2023-01-01T08:37:01.378Z,13.58
2023-01-01T08:39:27.969Z,14.09
2023-01-01T08:41:54.363Z,14.80
2023-01-01T08:44:20.862Z,14.75
2023-01-01T08:46:47.319Z,15.42
2023-01-01T08:49:13.718Z,15.44
2023-01-01T08:51:40.795Z,14.91
2023-01-01T08:54:07.317Z,15.10
2023-01-01T08:56:33.685Z,16.00
2023-01-01T08:59:04.091Z,15.55
2023-01-01T09:01:31.202Z,15.52
2023-01-01T09:03:57.817Z,16.55
2023-01-01T09:06:24.263Z,17.34
2023-01-01T09:08:51.379Z,16.87
2023-01-01T09:11:22.862Z,17.41
2023-01-01T09:13:49.316Z,18.40
2023-01-01T09:16:15.760Z,17.74
2023-01-01T09:18:42.189Z,18.95
2023-01-01T09:21:09.044Z,19.01
2023-01-01T09:23:35.421Z,19.59
2023-01-01T09:26:02.650Z,19.82
2023-01-01T09:28:29.608Z,19.85
2023-01-01T09:30:56.056Z,20.31
2023-01-01T09:33:22.493Z,20.28
2023-01-01T09:35:48.909Z,20.15
2023-01-01T09:38:15.310Z,19.91
2023-01-01T09:40:51.815Z,20.01
2023-01-01T09:43:36.860Z,20.10
2023-01-01T09:46:07.604Z,20.22
2023-01-01T09:48:37.436Z,20.65
2023-01-01T09:51:05.953Z,20.75
2023-01-01T09:53:35.148Z,20.49
2023-01-01T09:56:03.062Z,20.23
2023-01-01T09:58:33.424Z,20.00
2023-01-01T10:01:09.508Z,19.29
2023-01-01T10:03:51.410Z,18.94
2023-01-01T10:06:24.350Z,18.63
2023-01-01T10:09:06.013Z,19.01
2023-01-01T10:11:41.598Z,19.04
2023-01-01T10:14:20.197Z,19.52
2023-01-01T10:16:49.573Z,20.02
2023-01-01T10:19:26.288Z,20.56
2023-01-01T10:21:54.195Z,20.03
2023-01-01T10:24:23.386Z,19.03
2023-01-01T10:26:50.803Z,19.47
2023-01-01T10:29:22.779Z,20.25
2023-01-01T10:31:49.310Z,20.24
2023-01-01T10:34:17.827Z,20.54
2023-01-01T10:36:44.436Z,20.94
2023-01-01T10:39:16.183Z,21.73
2023-01-01T10:41:43.156Z,21.92
2023-01-01T10:44:10.130Z,21.93
2023-01-01T10:46:37.419Z,22.51
2023-01-01T10:49:07.025Z,22.38
2023-01-01T10:51:35.668Z,22.79
2023-01-01T10:54:02.247Z,22.66
2023-01-01T10:56:41.143Z,22.93
2023-01-01T10:59:27.489Z,23.07
2023-01-01T11:02:07.811Z,23.06
2023-01-01T11:04:34.728Z,22.93
2023-01-01T11:07:06.226Z,23.65
2023-01-01T11:09:36.899Z,23.77
2023-01-01T11:12:11.856Z,24.69
2023-01-01T11:14:53.279Z,24.86
2023-01-01T11:17:25.848Z,25.11
2023-01-01T11:19:58.171Z,24.90
2023-01-01T11:22:45.404Z,24.05
2023-01-01T11:25:25.333Z,24.54
2023-01-01T11:27:52.296Z,24.56
2023-01-01T11:30:21.103Z,24.56
2023-01-01T11:32:55.215Z,24.53
2023-01-01T11:35:24.826Z,24.68
2023-01-01T11:37:53.745Z,24.47
2023-01-01T11:40:23.017Z,24.93
2023-01-01T11:42:58.574Z,24.71
2023-01-01T11:45:37.219Z,25.18
2023-01-01T11:48:06.048Z,25.28
2023-01-01T11:50:34.884Z,24.90
2023-01-01T11:53:18.971Z,24.85
2023-01-01T11:55:50.230Z,24.78
2023-01-01T11:58:29.956Z,24.89
2023-01-01T12:01:02.193Z,25.03
2023-01-01T12:03:33.796Z,24.41
2023-01-01T12:06:09.409Z,23.82
2023-01-01T12:08:42.161Z,23.16
2023-01-01T12:11:21.050Z,23.00
2023-01-01T12:13:53.394Z,22.74
2023-01-01T12:16:22.756Z,23.40
2023-01-01T12:19:11.925Z,23.46
2023-01-01T12:21:39.517Z,22.80
2023-01-01T12:24:11.508Z,22.83
2023-01-01T12:26:52.058Z,23.46
2023-01-01T12:29:37.025Z,22.62
2023-01-01T12:32:03.495Z,22.25
2023-01-01T12:34:44.950Z,22.53
2023-01-01T12:37:20.427Z,22.71
2023-01-01T12:40:44.314Z,22.59
2023-01-01T12:43:31.707Z,22.59
2023-01-01T12:45:58.076Z,22.37
2023-01-01T12:48:24.415Z,21.93
2023-01-01T12:51:05.863Z,22.10
2023-01-01T12:53:51.188Z,22.02
2023-01-01T12:56:23.770Z,21.83
2023-01-01T12:58:59.492Z,21.50
2023-01-01T13:01:33.086Z,21.07
2023-01-01T13:04:03.153Z,21.40
2023-01-01T13:06:41.616Z,21.49
2023-01-01T13:09:13.581Z,21.90
2023-01-01T13:11:44.995Z,21.76
2023-01-01T13:14:11.952Z,21.74
2023-01-01T13:16:41.407Z,21.70
2023-01-01T13:19:23.565Z,21.68
2023-01-01T13:21:50.007Z,21.19
2023-01-01T13:24:23.872Z,20.13
2023-01-01T13:26:51.141Z,19.63
2023-01-01T13:29:20.464Z,18.82
2023-01-01T13:31:46.866Z,18.19
2023-01-01T13:34:35.225Z,17.63
2023-01-01T13:37:11.046Z,17.23
2023-01-01T13:39:55.885Z,16.73
2023-01-01T13:42:43.064Z,16.39
2023-01-01T13:45:24.871Z,16.20
2023-01-01T13:48:09.979Z,15.99
2023-01-01T13:50:56.591Z,15.82
2023-01-01T13:53:22.981Z,15.73
2023-01-01T13:55:57.885Z,15.55
2023-01-01T13:58:36.112Z,15.40
2023-01-01T14:01:21.333Z,15.33
2023-01-01T14:03:50.233Z,15.17
2023-01-01T14:06:23.996Z,15.03
2023-01-01T14:09:00.788Z,14.87
2023-01-01T14:11:28.229Z,14.69
2023-01-01T14:13:54.667Z,14.49
2023-01-01T14:16:21.268Z,14.44
2023-01-01T14:18:53.167Z,14.22
2023-01-01T14:21:20.585Z,14.00
2023-01-01T14:23:54.457Z,13.84
2023-01-01T14:26:22.233Z,13.53
2023-01-01T14:28:48.683Z,13.28
2023-01-01T14:31:23.632Z,13.07
2023-01-01T14:33:50.066Z,12.81
2023-01-01T14:36:19.988Z,12.64
2023-01-01T14:38:47.547Z,12.47
2023-01-01T14:41:16.015Z,12.24
2023-01-01T14:43:43.524Z,11.96
2023-01-01T14:46:15.242Z,11.80
2023-01-01T14:48:52.911Z,11.64
2023-01-01T14:51:20.769Z,11.38
2023-01-01T14:53:48.210Z,11.13
2023-01-01T14:56:23.852Z,10.87
2023-01-01T14:58:50.427Z,10.68
2023-01-01T15:01:18.404Z,10.50
2023-01-01T15:03:58.394Z,10.27
2023-01-01T15:06:25.877Z,10.01
2023-01-01T15:08:52.707Z,9.78
2023-01-01T15:11:24.995Z,9.51
2023-01-01T15:13:56.031Z,9.33
2023-01-01T15:16:23.060Z,9.16
2023-01-01T15:18:53.439Z,9.03
2023-01-01T15:21:19.841Z,8.90
2023-01-01T15:23:54.842Z,8.92
2023-01-01T15:26:29.452Z,8.70
2023-01-01T15:28:56.855Z,8.54
2023-01-01T15:31:23.472Z,8.37
2023-01-01T15:33:49.905Z,8.22
2023-01-01T15:36:16.868Z,8.14
2023-01-01T15:38:47.652Z,8.07
2023-01-01T15:41:24.301Z,7.85
2023-01-01T15:43:50.704Z,7.63
2023-01-01T15:46:17.145Z,7.42
2023-01-01T15:48:48.251Z,7.28
2023-01-01T15:51:24.813Z,7.17
2023-01-01T15:53:59.450Z,7.11
2023-01-01T15:56:27.485Z,7.04
2023-01-01T15:59:05.104Z,6.93
2023-01-01T16:01:35.811Z,6.75
2023-01-01T16:04:10.077Z,6.58
2023-01-01T16:06:44.017Z,6.46
2023-01-01T16:09:14.065Z,6.34
2023-01-01T16:11:40.477Z,6.26
2023-01-01T16:14:06.881Z,6.13
2023-01-01T16:16:34.047Z,6.05
2023-01-01T16:19:00.544Z,5.96
2023-01-01T16:21:28.067Z,5.84
2023-01-01T16:23:55.007Z,5.76
2023-01-01T16:26:22.051Z,5.70
2023-01-01T16:28:48.784Z,5.66
2023-01-01T16:31:17.078Z,5.55
2023-01-01T16:33:45.015Z,5.42
2023-01-01T16:36:12.151Z,5.36
2023-01-01T16:38:38.584Z,5.22
2023-01-01T16:41:05.162Z,5.15
2023-01-01T16:43:31.502Z,5.10
2023-01-01T16:45:57.950Z,5.00
2023-01-01T16:48:24.321Z,4.93
2023-01-01T16:50:52.149Z,4.88
2023-01-01T16:53:18.499Z,4.87
2023-01-01T16:55:44.865Z,4.75
2023-01-01T16:58:48.071Z,4.72
2023-01-01T17:01:01.099Z,4.58
2023-01-01T17:03:27.615Z,4.47
2023-01-01T17:05:54.178Z,4.40
2023-01-01T17:08:20.550Z,4.34
2023-01-01T17:10:46.958Z,4.33
2023-01-01T17:13:13.350Z,4.18
2023-01-01T17:15:39.808Z,4.23
2023-01-01T17:18:06.159Z,4.14
2023-01-01T17:20:34.520Z,4.11
2023-01-01T17:23:00.924Z,4.05
2023-01-01T17:25:27.372Z,3.99
2023-01-01T17:27:53.909Z,3.89
2023-01-01T17:30:20.423Z,3.83
2023-01-01T17:32:46.813Z,3.82
2023-01-01T17:35:13.307Z,3.75
2023-01-01T17:37:39.702Z,3.71
2023-01-01T17:40:06.479Z,3.70
2023-01-01T17:42:34.528Z,3.65
2023-01-01T17:45:00.956Z,3.70
2023-01-01T17:47:32.640Z,3.58
2023-01-01T17:49:59.752Z,3.54
2023-01-01T17:52:26.187Z,3.54
2023-01-01T17:54:52.605Z,3.44
2023-01-01T17:57:19.143Z,3.40
2023-01-01T17:59:45.678Z,3.48
2023-01-01T18:02:13.093Z,3.47
2023-01-01T18:04:40.290Z,3.48
2023-01-01T18:07:06.871Z,3.46
2023-01-01T18:09:33.547Z,3.43
2023-01-01T18:11:59.969Z,3.38
2023-01-01T18:14:26.483Z,3.24
2023-01-01T18:16:52.866Z,3.16
2023-01-01T18:19:19.910Z,3.10
2023-01-01T18:21:46.335Z,3.02
2023-01-01T18:24:13.795Z,2.91
2023-01-01T18:26:40.367Z,2.82
2023-01-01T18:29:06.797Z,2.83
2023-01-01T18:31:34.377Z,2.76
2023-01-01T18:34:03.362Z,2.69
2023-01-01T18:36:31.170Z,2.64
2023-01-01T18:39:00.349Z,2.65
2023-01-01T18:41:29.879Z,2.66
2023-01-01T18:43:57.584Z,2.74
2023-01-01T18:46:24.047Z,2.77
2023-01-01T18:48:54.041Z,2.78
2023-01-01T18:51:25.317Z,2.70
2023-01-01T18:53:54.563Z,2.60
2023-01-01T18:56:20.982Z,2.54
2023-01-01T18:58:49.424Z,2.49
2023-01-01T19:01:18.610Z,2.48
2023-01-01T19:03:48.749Z,2.39
2023-01-01T19:06:28.610Z,2.30
2023-01-01T19:09:13.244Z,2.27
2023-01-01T19:11:39.747Z,2.17
2023-01-01T19:14:13.497Z,2.09
2023-01-01T19:16:39.892Z,2.04
2023-01-01T19:19:13.024Z,1.96
2023-01-01T19:21:39.736Z,1.87
2023-01-01T19:24:10.776Z,1.96
2023-01-01T19:26:41.360Z,1.88
2023-01-01T19:29:12.908Z,1.79
2023-01-01T19:31:39.344Z,1.88
2023-01-01T19:34:05.831Z,1.80
2023-01-01T19:36:32.240Z,1.77
2023-01-01T19:38:58.599Z,1.60
2023-01-01T19:41:25.031Z,1.57
2023-01-01T19:43:51.460Z,1.64
2023-01-01T19:46:18.003Z,1.74
2023-01-01T19:48:44.409Z,1.67
2023-01-01T19:51:10.909Z,1.63
2023-01-01T19:53:37.295Z,1.63
2023-01-01T19:56:03.698Z,1.49
2023-01-01T19:58:30.105Z,1.42
2023-01-01T20:00:56.533Z,1.40
2023-01-01T20:03:52.997Z,1.40
2023-01-01T20:06:10.506Z,1.41
2023-01-01T20:08:38.223Z,1.37
2023-01-01T20:11:05.395Z,1.37
2023-01-01T20:13:32.215Z,1.39
2023-01-01T20:15:58.738Z,1.32
2023-01-01T20:18:25.295Z,1.35
2023-01-01T20:21:10.007Z,1.38
2023-01-01T20:23:36.486Z,1.24
2023-01-01T20:26:04.129Z,1.19
2023-01-01T20:28:49.205Z,1.20
2023-01-01T20:31:15.662Z,1.15
2023-01-01T20:33:42.118Z,1.14
2023-01-01T20:36:27.236Z,1.28
2023-01-01T20:38:53.629Z,1.35
2023-01-01T20:41:26.126Z,1.43
2023-01-01T20:43:58.900Z,1.39
2023-01-01T20:46:25.954Z,1.40
2023-01-01T20:48:53.228Z,1.28
2023-01-01T20:51:19.611Z,1.41
2023-01-01T20:53:46.037Z,1.38
2023-01-01T20:56:12.517Z,1.30
2023-01-01T20:58:44.284Z,1.28
2023-01-01T21:01:14.437Z,1.30
2023-01-01T21:03:40.956Z,1.25
2023-01-01T21:06:07.375Z,1.20
2023-01-01T21:08:33.768Z,1.22
2023-01-01T21:11:00.241Z,1.15
2023-01-01T21:13:26.716Z,1.22
2023-01-01T21:15:54.610Z,1.29
2023-01-01T21:18:20.995Z,1.38
2023-01-01T21:20:48.266Z,1.34
2023-01-01T21:23:27.269Z,1.30
2023-01-01T21:25:53.739Z,1.27
2023-01-01T21:28:20.535Z,1.30
2023-01-01T21:30:50.045Z,1.28
2023-01-01T21:33:22.737Z,1.23
2023-01-01T21:35:49.100Z,1.14
2023-01-01T21:38:18.793Z,1.09
2023-01-01T21:40:48.223Z,1.13
2023-01-01T21:43:24.234Z,1.12
2023-01-01T21:45:50.866Z,1.09
2023-01-01T21:48:36.067Z,1.14
2023-01-01T21:51:02.479Z,1.14
2023-01-01T21:53:35.864Z,1.16
2023-01-01T21:56:20.527Z,1.13
2023-01-01T21:59:05.542Z,1.12
2023-01-01T22:01:37.839Z,1.04
2023-01-01T22:04:10.269Z,0.95
2023-01-01T22:06:43.006Z,0.81
2023-01-01T22:09:23.153Z,0.70
2023-01-01T22:11:51.409Z,0.68
2023-01-01T22:14:19.008Z,0.58
2023-01-01T22:16:47.493Z,0.53
2023-01-01T22:19:15.917Z,0.47
2023-01-01T22:21:42.480Z,0.44
2023-01-01T22:24:22.609Z,0.39
2023-01-01T22:26:49.050Z,0.40
2023-01-01T22:29:17.989Z,0.39
2023-01-01T22:31:49.068Z,0.32
2023-01-01T22:34:19.533Z,0.33
2023-01-01T22:36:45.919Z,0.34
2023-01-01T22:39:15.724Z,0.33
2023-01-01T22:41:42.358Z,0.25
2023-01-01T22:44:10.669Z,0.19
2023-01-01T22:46:38.932Z,0.14
2023-01-01T22:49:25.583Z,0.16
2023-01-01T22:51:54.632Z,0.18
2023-01-01T22:54:21.088Z,0.11
2023-01-01T22:56:47.473Z,0.08
2023-01-01T22:59:13.893Z,0.08
2023-01-01T23:01:40.376Z,0.03
2023-01-01T23:04:06.878Z,0.05
2023-01-01T23:06:33.379Z,0.03
2023-01-01T23:08:59.864Z,-0.08
2023-01-01T23:11:27.163Z,-0.09
2023-01-01T23:14:11.899Z,-0.01
2023-01-01T23:16:38.350Z,0.06
2023-01-01T23:19:05.330Z,-0.01
2023-01-01T23:21:32.943Z,-0.11
2023-01-01T23:24:00.582Z,-0.21
2023-01-01T23:26:27.414Z,-0.28
2023-01-01T23:28:54.821Z,-0.29
2023-01-01T23:31:25.168Z,-0.26
2023-01-01T23:33:52.493Z,-0.26
2023-01-01T23:36:18.998Z,-0.38
2023-01-01T23:38:45.560Z,-0.31
2023-01-01T23:41:12.040Z,-0.29
2023-01-01T23:43:43.232Z,-0.37
2023-01-01T23:46:11.350Z,-0.46
2023-01-01T23:48:37.778Z,-0.59
2023-01-01T23:51:04.399Z,-0.64
2023-01-01T23:53:30.855Z,-0.59
2023-01-01T23:55:57.347Z,-0.47
2023-01-01T23:58:23.808Z,-0.41
